Terminal Aerodrome Forecast
Issued by NWS Twin Cities, MN

Home | Current Version | Previous Version | Text Only | Print | Product List | Glossary Off
Versions: 1 2 3 4 5 6 7 8 9 10 11 12 13

000
FTUS43 KMPX 271743
TAFEAU
TAF
KEAU 271743Z 2718/2818 27007KT P6SM SCT060 OVC100
     FM280200 24003KT P6SM SCT080 BKN150
     FM281400 26009KT P6SM SCT150=

USA.gov is the U.S. government's official web portal to all federal, state and local government web resources and services.